Time;durP1;ratioP1;P1;durP2;ratioP2;P2;SDS_P1;SDS_P2;PMS_P1;PMS_P2;Temp;Humidity;BMP_temperature;BMP_pressure;BME280_temperature;BME280_humidity;BME280_pressure;Samples;Min_cycle;Max_cycle;Signal;HPM_P1;HPM_P2
2023/01/21 00:08:10;;;;;;;21.53;15.47;;;;;;;0.34;64.04;101372.63;20912912;28;20261;-86
2023/01/21 00:18:13;;;;;;;26.03;16.57;;;;;;;0.33;63.66;101385.59;20900626;28;20227;-86
2023/01/21 00:28:18;;;;;;;23.30;16.17;;;;;;;0.13;63.42;101392.31;20908179;28;20192;-88
2023/01/21 00:38:21;;;;;;;22.40;15.73;;;;;;;0.33;63.32;101404.91;20953452;28;20215;-84
2023/01/21 00:48:24;;;;;;;24.00;16.33;;;;;;;-0.82;66.97;101433.31;20922109;28;20192;-86
2023/01/21 00:58:26;;;;;;;24.10;15.87;;;;;;;0.13;63.44;101450.22;20915829;28;20219;-86
2023/01/21 01:08:29;;;;;;;24.97;15.40;;;;;;;-0.06;62.87;101455.59;20934582;28;20211;-86
2023/01/21 01:18:33;;;;;;;25.00;16.43;;;;;;;0.50;62.68;101488.03;20907796;28;20216;-86
2023/01/21 01:28:39;;;;;;;25.33;15.93;;;;;;;0.29;62.98;101503.00;20951870;28;20192;-88
2023/01/21 01:38:42;;;;;;;27.73;17.53;;;;;;;0.47;61.91;101518.00;20954162;28;20223;-87
2023/01/21 01:48:49;;;;;;;22.60;15.80;;;;;;;-0.10;62.66;101541.75;20917676;28;20584;-88
2023/01/21 01:58:52;;;;;;;23.57;15.37;;;;;;;0.05;62.28;101541.50;20917163;28;20216;-88
2023/01/21 02:08:54;;;;;;;25.50;17.20;;;;;;;0.30;62.03;101548.00;20900564;28;20277;-87
2023/01/21 02:19:34;;;;;;;24.83;14.87;;;;;;;-0.18;63.16;101555.75;20899344;28;20219;-86
2023/01/21 02:30:01;;;;;;;23.83;16.40;;;;;;;0.03;62.80;101570.16;20912438;28;20249;-86
2023/01/21 02:40:24;;;;;;;21.20;14.37;;;;;;;-0.68;63.93;101575.50;20924225;28;20635;-86
2023/01/21 02:50:29;;;;;;;25.27;16.43;;;;;;;-0.25;64.13;101586.09;20940007;28;20192;-85
2023/01/21 03:00:54;;;;;;;20.97;16.40;;;;;;;0.05;62.76;101592.00;20962448;28;20662;-87
2023/01/21 03:11:10;;;;;;;25.50;17.17;;;;;;;-0.10;63.03;101597.75;20918612;28;20690;-87
2023/01/21 03:21:16;;;;;;;21.30;15.90;;;;;;;-0.68;64.19;101605.78;20926680;28;20281;-87
2023/01/21 03:31:22;;;;;;;24.57;16.77;;;;;;;-0.14;63.03;101613.03;20957164;28;20497;-87
2023/01/21 03:41:32;;;;;;;23.20;17.80;;;;;;;0.09;62.20;101628.25;20944652;28;20273;-88
2023/01/21 03:51:38;;;;;;;24.93;16.90;;;;;;;0.01;62.62;101640.38;20936708;28;20192;-86
2023/01/21 04:01:41;;;;;;;25.17;15.97;;;;;;;-1.00;63.79;101650.66;20939875;28;20215;-86
2023/01/21 04:11:43;;;;;;;27.93;17.27;;;;;;;-0.61;63.16;101658.16;20917662;28;20224;-85
2023/01/21 04:21:45;;;;;;;22.97;15.73;;;;;;;-0.70;61.78;101663.00;20938082;28;20220;-86
2023/01/21 04:31:48;;;;;;;22.50;15.77;;;;;;;-1.01;62.84;101665.47;20920973;28;20206;-85
2023/01/21 04:41:50;;;;;;;24.73;16.40;;;;;;;-0.68;62.17;101677.44;20937805;28;20235;-85
2023/01/21 04:51:53;;;;;;;23.57;15.87;;;;;;;-0.89;62.41;101694.13;20925519;28;20273;-85
2023/01/21 05:01:55;;;;;;;25.03;16.83;;;;;;;-1.18;62.30;101695.25;20934517;28;20262;-85
2023/01/21 05:11:57;;;;;;;21.43;14.97;;;;;;;-0.75;61.55;101703.28;20933514;28;20223;-84
2023/01/21 05:21:59;;;;;;;30.67;17.27;;;;;;;-0.72;62.25;101708.38;20916545;28;20215;-85
2023/01/21 05:32:01;;;;;;;22.63;15.63;;;;;;;-0.71;61.32;101715.56;20916709;28;20646;-84
2023/01/21 05:42:04;;;;;;;21.93;15.97;;;;;;;-1.09;61.66;101739.97;20934623;28;20216;-83
2023/01/21 05:52:06;;;;;;;25.77;16.10;;;;;;;-0.99;61.29;101745.97;20959406;28;20272;-84
2023/01/21 06:02:09;;;;;;;24.33;16.37;;;;;;;-0.86;60.87;101765.31;20944948;28;20269;-84
2023/01/21 06:12:11;;;;;;;21.77;15.60;;;;;;;-0.87;61.05;101780.16;20932754;28;20222;-85
2023/01/21 06:22:17;;;;;;;24.27;15.83;;;;;;;-1.01;60.50;101810.56;20966684;28;21484;-84
2023/01/21 06:32:19;;;;;;;22.37;15.37;;;;;;;-0.90;61.09;101821.84;20952568;28;20588;-84
2023/01/21 06:42:22;;;;;;;23.23;15.97;;;;;;;-0.82;61.75;101829.09;20956630;28;20253;-84
2023/01/21 06:52:25;;;;;;;21.90;15.20;;;;;;;-0.60;62.23;101827.09;20933944;28;20277;-84
2023/01/21 07:02:27;;;;;;;21.53;15.77;;;;;;;-0.29;62.36;101834.84;20964798;28;20570;-84
2023/01/21 07:12:29;;;;;;;24.40;16.37;;;;;;;-0.06;61.98;101843.59;20960259;28;20188;-84
2023/01/21 07:22:34;;;;;;;25.67;16.77;;;;;;;-0.36;63.62;101862.41;20965103;28;20266;-84
2023/01/21 07:32:37;;;;;;;26.20;17.10;;;;;;;-0.09;62.56;101875.25;20972777;28;20249;-83
2023/01/21 07:42:39;;;;;;;26.33;18.80;;;;;;;-0.09;63.00;101880.75;20971105;28;20852;-86
2023/01/21 07:52:42;;;;;;;30.53;18.63;;;;;;;0.27;62.51;101885.09;20920008;28;20234;-85
2023/01/21 08:02:53;;;;;;;31.33;20.80;;;;;;;0.44;62.58;101896.59;20912913;28;20228;-87
2023/01/21 08:12:56;;;;;;;28.77;19.90;;;;;;;0.43;62.26;101905.94;20899949;28;20203;-88
2023/01/21 08:22:59;;;;;;;28.80;20.13;;;;;;;0.19;63.49;101916.50;20921996;28;20282;-85
2023/01/21 08:33:01;;;;;;;25.97;18.80;;;;;;;0.86;61.40;101923.78;20902853;28;20227;-85
2023/01/21 08:43:08;;;;;;;27.60;17.80;;;;;;;0.51;62.26;101931.41;20916383;28;20223;-86
2023/01/21 08:53:10;;;;;;;27.60;16.97;;;;;;;0.83;61.83;101945.50;20911587;28;20212;-84
2023/01/21 09:03:15;;;;;;;22.63;15.90;;;;;;;1.01;61.42;101949.34;20898840;28;20235;-82
2023/01/21 09:13:18;;;;;;;20.47;15.50;;;;;;;0.90;62.71;101952.72;20886689;28;20227;-83
2023/01/21 09:23:25;;;;;;;25.40;16.10;;;;;;;1.36;61.12;101952.69;20885687;28;20243;-84
2023/01/21 09:33:29;;;;;;;21.73;14.70;;;;;;;1.31;61.69;101971.88;20938180;28;20196;-86
2023/01/21 09:43:37;;;;;;;21.93;15.23;;;;;;;1.51;60.18;101971.81;20927165;28;20215;-85
2023/01/21 09:53:47;;;;;;;24.70;15.13;;;;;;;1.88;60.35;101984.06;20921778;28;20500;-85
2023/01/21 10:04:31;;;;;;;24.83;15.57;;;;;;;1.54;61.20;102003.72;20960262;28;20214;-86
2023/01/21 10:14:49;;;;;;;27.33;16.87;;;;;;;1.71;61.98;101999.47;20910622;28;20255;-86
2023/01/21 10:24:59;;;;;;;26.87;16.50;;;;;;;2.09;59.51;102000.41;20954811;28;20195;-86
2023/01/21 10:35:01;;;;;;;27.97;17.37;;;;;;;2.27;60.00;101998.88;20932042;28;20251;-84
2023/01/21 10:45:25;;;;;;;24.63;15.87;;;;;;;2.53;59.24;101995.94;20941991;28;20626;-85
2023/01/21 10:55:35;;;;;;;24.67;16.77;;;;;;;2.30;60.38;101998.41;20941881;28;20247;-84
2023/01/21 11:05:37;;;;;;;28.27;18.83;;;;;;;2.13;61.86;101998.94;20907880;28;20216;-85
2023/01/21 11:15:44;;;;;;;28.87;18.27;;;;;;;2.33;61.78;101990.53;20915417;28;20575;-86
2023/01/21 11:25:47;;;;;;;27.97;17.73;;;;;;;2.23;61.24;101997.59;20888193;28;20253;-84
2023/01/21 11:35:52;;;;;;;30.57;18.57;;;;;;;2.27;62.14;102001.63;20919851;28;20227;-86
2023/01/21 11:45:55;;;;;;;34.00;19.40;;;;;;;2.49;61.09;101998.31;20894325;28;20200;-85
2023/01/21 11:56:01;;;;;;;32.77;19.07;;;;;;;2.43;61.89;101992.81;20918273;28;20296;-84
2023/01/21 12:06:05;;;;;;;30.93;19.43;;;;;;;2.46;62.17;101997.91;20909583;28;20231;-85
2023/01/21 12:16:23;;;;;;;32.80;19.70;;;;;;;2.63;62.04;101995.47;20952390;28;20498;-86
2023/01/21 12:26:49;;;;;;;31.37;18.17;;;;;;;2.54;61.51;101987.41;20912130;28;20250;-88
2023/01/21 12:36:56;;;;;;;31.47;18.37;;;;;;;2.45;62.72;101990.66;20918500;28;20701;-85
2023/01/21 12:47:04;;;;;;;28.87;18.17;;;;;;;2.45;63.42;101990.66;20948084;28;20492;-88
2023/01/21 12:57:21;;;;;;;26.87;16.63;;;;;;;2.65;62.41;101985.03;20930517;28;20675;-87
2023/01/21 13:07:46;;;;;;;27.63;15.97;;;;;;;2.33;62.54;101996.06;20923062;28;20241;-87
2023/01/21 13:17:51;;;;;;;24.13;15.10;;;;;;;1.99;63.96;102008.34;20942198;28;20235;-88
2023/01/21 13:28:18;;;;;;;23.57;14.80;;;;;;;2.44;61.22;102005.59;20903340;28;20253;-91
2023/01/21 13:38:26;;;;;;;22.03;13.70;;;;;;;2.50;59.84;102018.56;20892606;28;20269;-86
2023/01/21 13:48:31;;;;;;;21.07;13.90;;;;;;;2.54;60.03;102017.03;20886616;28;20238;-86
2023/01/21 13:58:56;;;;;;;19.70;12.50;;;;;;;2.17;60.69;102022.31;20899488;28;20234;-85
2023/01/21 14:09:27;;;;;;;19.87;13.30;;;;;;;2.09;60.58;102030.00;20916941;28;20271;-84
2023/01/21 14:19:51;;;;;;;20.27;12.50;;;;;;;2.21;59.35;102050.41;20885606;28;20268;-87
2023/01/21 14:30:05;;;;;;;18.80;11.50;;;;;;;2.34;58.71;102043.97;20906346;28;20489;-84
2023/01/21 14:40:15;;;;;;;15.20;10.33;;;;;;;2.24;58.11;102046.38;20930087;28;20320;-83
2023/01/21 14:50:51;;;;;;;19.87;11.03;;;;;;;3.12;55.93;102037.16;20911612;28;20222;-87
2023/01/21 15:00:53;;;;;;;15.20;10.50;;;;;;;2.82;56.63;102048.00;20898322;28;20636;-83
2023/01/21 15:11:04;;;;;;;18.10;9.17;;;;;;;2.64;55.74;102042.38;20917775;28;20215;-85
2023/01/21 15:21:42;;;;;;;13.70;9.33;;;;;;;2.51;55.12;102051.59;20916584;28;21449;-84
2023/01/21 15:31:44;;;;;;;11.30;7.87;;;;;;;2.10;55.91;102049.16;20875232;28;20285;-84
2023/01/21 15:42:18;;;;;;;25.13;15.87;;;;;;;2.68;54.64;102051.91;20906869;28;20252;-83
2023/01/21 15:52:39;;;;;;;14.00;9.40;;;;;;;2.45;53.95;102046.06;20932357;28;20200;-84
2023/01/21 16:02:51;;;;;;;9.80;6.10;;;;;;;2.45;52.65;102059.91;20894789;28;20255;-85
2023/01/21 16:13:12;;;;;;;7.30;5.23;;;;;;;2.34;53.28;102055.91;20895441;28;20196;-84
2023/01/21 16:23:16;;;;;;;9.27;6.20;;;;;;;1.81;52.67;102055.19;20897371;28;20581;-83
2023/01/21 16:33:18;;;;;;;9.83;6.13;;;;;;;2.36;52.25;102039.06;20926517;28;20217;-83
2023/01/21 16:43:23;;;;;;;11.60;6.47;;;;;;;2.58;51.73;102048.78;20899185;28;20569;-85
2023/01/21 16:53:26;;;;;;;13.43;9.33;;;;;;;2.66;51.71;102056.81;20901412;28;20261;-85
2023/01/21 17:03:28;;;;;;;16.70;10.80;;;;;;;2.74;53.59;102051.03;20930400;28;20277;-84
2023/01/21 17:13:31;;;;;;;12.67;8.80;;;;;;;2.64;53.26;102053.44;20925042;28;20199;-84
2023/01/21 17:23:36;;;;;;;14.93;9.80;;;;;;;2.21;54.57;102053.19;20930584;28;20612;-85
2023/01/21 17:33:38;;;;;;;13.13;9.67;;;;;;;2.31;54.89;102066.56;20908409;28;20245;-84
2023/01/21 17:43:47;;;;;;;17.37;10.13;;;;;;;2.50;55.76;102073.97;20924672;28;20220;-84
2023/01/21 17:53:55;;;;;;;19.03;11.93;;;;;;;1.93;58.38;102085.81;20865127;28;20266;-83
2023/01/21 18:03:57;;;;;;;21.13;12.97;;;;;;;2.05;58.37;102098.78;20912760;28;20247;-84
2023/01/21 18:13:59;;;;;;;19.90;12.90;;;;;;;2.24;59.22;102090.66;20926457;28;20208;-85
2023/01/21 18:24:01;;;;;;;20.77;13.10;;;;;;;1.63;60.62;102082.63;20894599;28;20690;-85
2023/01/21 18:34:05;;;;;;;24.63;15.60;;;;;;;1.99;59.40;102085.81;20932547;28;20204;-83
2023/01/21 18:44:07;;;;;;;25.57;15.70;;;;;;;1.90;60.75;102087.09;20907979;28;20624;-84
2023/01/21 18:54:12;;;;;;;23.33;14.13;;;;;;;1.96;60.75;102080.72;20908306;28;20488;-84
2023/01/21 19:04:16;;;;;;;24.77;14.93;;;;;;;2.44;59.83;102072.06;20920926;28;20223;-84
2023/01/21 19:14:19;;;;;;;23.10;15.07;;;;;;;1.99;62.24;102069.22;20907356;28;20192;-85
2023/01/21 19:24:21;;;;;;;25.23;16.67;;;;;;;2.23;61.71;102058.50;20907464;28;20224;-83
2023/01/21 19:34:25;;;;;;;28.27;15.97;;;;;;;1.96;63.53;102058.56;20946987;28;20215;-85
2023/01/21 19:44:28;;;;;;;27.47;16.03;;;;;;;2.16;62.92;102058.50;20912267;28;20212;-87
2023/01/21 19:54:32;;;;;;;27.57;16.40;;;;;;;2.60;60.88;102057.72;20934903;28;20200;-85
2023/01/21 20:04:34;;;;;;;24.30;15.90;;;;;;;2.11;62.55;102055.56;20907803;28;20556;-85
2023/01/21 20:14:37;;;;;;;26.30;16.43;;;;;;;2.37;62.01;102054.63;20939521;28;20647;-86
2023/01/21 20:24:39;;;;;;;30.73;18.20;;;;;;;2.29;62.10;102052.06;20916401;28;20252;-85
2023/01/21 20:34:41;;;;;;;23.87;14.87;;;;;;;2.16;62.36;102059.34;20929311;28;20620;-84
2023/01/21 20:44:44;;;;;;;24.60;15.57;;;;;;;2.16;61.97;102059.34;20890992;28;20243;-84
2023/01/21 20:54:46;;;;;;;26.50;15.67;;;;;;;1.98;61.56;102067.50;20901169;28;20250;-85
2023/01/21 21:04:49;;;;;;;26.50;15.60;;;;;;;2.10;62.07;102060.25;20930845;28;20220;-85
2023/01/21 21:14:52;;;;;;;26.53;16.63;;;;;;;2.35;60.57;102067.84;20910207;28;20215;-85
2023/01/21 21:24:54;;;;;;;23.57;14.93;;;;;;;2.11;61.82;102059.19;20933216;28;20285;-88
2023/01/21 21:34:58;;;;;;;21.43;14.13;;;;;;;2.02;61.46;102062.38;20910480;28;20254;-84
2023/01/21 21:45:01;;;;;;;22.60;14.30;;;;;;;2.28;60.73;102039.31;20924594;28;20223;-87
2023/01/21 21:55:04;;;;;;;22.67;12.90;;;;;;;1.95;60.44;102056.03;20918432;28;20609;-87
2023/01/21 22:05:10;;;;;;;19.90;12.67;;;;;;;2.06;60.99;102058.13;20906014;28;20628;-85
2023/01/21 22:15:12;;;;;;;21.57;13.63;;;;;;;2.15;59.38;102063.19;20911019;28;20764;-86
2023/01/21 22:25:15;;;;;;;22.43;14.67;;;;;;;2.24;59.92;102071.28;20909731;28;20286;-86
2023/01/21 22:35:17;;;;;;;21.87;14.03;;;;;;;2.08;61.22;102072.59;20890192;28;20261;-86
2023/01/21 22:45:20;;;;;;;19.60;13.60;;;;;;;2.11;61.11;102067.47;20885341;28;20254;-86
2023/01/21 22:55:23;;;;;;;20.60;13.63;;;;;;;2.56;60.39;102066.66;20890024;28;20234;-86
2023/01/21 23:05:29;;;;;;;20.07;14.10;;;;;;;2.02;62.03;102066.00;20922786;28;20292;-87
2023/01/21 23:15:31;;;;;;;17.57;13.27;;;;;;;2.40;60.69;102043.13;20920171;28;20196;-84
2023/01/21 23:25:42;;;;;;;19.10;13.77;;;;;;;1.67;62.48;102036.91;20921458;28;20212;-84
2023/01/21 23:35:46;;;;;;;20.77;14.37;;;;;;;2.03;60.99;102023.41;20929828;28;20542;-85
2023/01/21 23:45:49;;;;;;;19.53;13.77;;;;;;;2.20;61.05;102009.94;20936005;28;20500;-86
2023/01/21 23:56:01;;;;;;;18.60;13.63;;;;;;;2.37;60.53;101999.25;20933675;28;20230;-86
